Mineral, WA

1:39 AM PDT on August 28, 2014 (GMT -0700)
Mineral Creek Rd | Change Station
CLOSE
Current Station
Personal Weather Station
Location: Mineral, WA
Elevation: 1411 ft
Nearby Weather Stations

Elev 1411 ft 46.72 °N, 122.15 °W | Updated 30 seconds ago

Clear
Clear
55.8 °F
Feels Like 55.8 °F
N
0.0
Wind Variable Wind from WSW
Gusts 0.0 mph

Today
High -- | Low -- °F
--% Chance of Precip.
Yesterday
High -- | Low -- °F
Precip. -- in
6:23 AM 7:55 PM
Waxing Crescent, 7% visible
Pressure 30.06 in
Visibility 10.0 miles
Clouds Clear
Dew Point 54 °F
Humidity 95%
Rainfall 0.00 in
Snow Depth Not available.
UV 0 out of 12
Pollen 3.50 out of 12
Air Quality Not available.
Flu Activity Not available.
METAR KGRF 280758Z AUTO 20003KT 10SM CLR 17/12 A3005 RMK AO2 SLP178 T01710122 402920138 PWINO $

More Conditions Fewer Conditions

Pressure 30.06 in
Visibility 10.0 miles
Clouds Clear
Dew Point 54 °F
Humidity 95%
Rainfall 0.00 in
Snow Depth Not available.
UV 0 out of 12
Pollen 3.50 out of 12
Air Quality Not available.
Flu Activity Not available.
METAR KGRF 280758Z AUTO 20003KT 10SM CLR 17/12 A3005 RMK AO2 SLP178 T01710122 402920138 PWINO $

More Conditions Fewer Conditions

10-Day Weather Forecast

Almanac

Astronomy

Aug. 28, 2014 Rise Set
Actual Time 6:23 AM PDT 7:55 PM PDT
Civil Twilight 5:51 AM PDT 8:26 PM PDT
Nautical Twilight 5:13 AM PDT 9:05 PM PDT
Astronomical Twilight 4:31 AM PDT 9:46 PM PDT
Moon 9:34 AM PDT 9:07 PM PDT
Length of Visible Light 14h 35m
Length of Day
13h 31m
Tomorrow will be 3m 10s shorter.
Waxing Crescent, 7% of the Moon is Illuminated
Today
Waxing Crescent
Sep 2
First Quarter
Sep 8
Full
Sep 15
Last Quarter
Sep 24
New

Today's Extremes

State Highs State Lows

Community

WunderPhotos

Upload Photos

1,747,918 photos uploaded!

Nearby

Snow Depth

Station Depth Elevation
Burnt Mountain 0 in 4200 ft
Lone Pine 0 in 3800 ft
Morse Lake 0 in 5400 ft
Pigtail Peak 0 in 5900 ft
Swift Creek 1 in 3770 ft

Earthquake Activity

City Distance Mag. Time & Date
No recent earthquake activity has been reported nearby.
Minimum magnitude displayed is 2.5.

Coastal Water Temperatures

Place Temperature
No Stations Reporting

Nearby Weather Stations